Time;durP1;ratioP1;P1;durP2;ratioP2;P2;SDS_P1;SDS_P2;PMS_P1;PMS_P2;Temp;Humidity;BMP_temperature;BMP_pressure;BME280_temperature;BME280_humidity;BME280_pressure;Samples;Min_cycle;Max_cycle;Signal;HPM_P1;HPM_P2
2023/12/24 00:02:23;;;;;;;5.03;2.50;;;8.10;99.90;;;8.20;64.29;94236.72;5078420;28;20895;-55
2023/12/24 00:04:50;;;;;;;6.73;2.30;;;8.20;99.90;;;8.29;64.50;94242.94;5079138;28;20529;-55
2023/12/24 00:07:18;;;;;;;5.33;2.43;;;8.30;99.90;;;8.40;64.34;94240.13;5078692;28;20458;-57
2023/12/24 00:09:45;;;;;;;4.80;2.33;;;8.40;99.90;;;8.52;64.21;94238.22;5081473;28;20467;-56
2023/12/24 00:12:14;;;;;;;9.30;2.60;;;8.50;99.90;;;8.63;63.77;94242.47;5078645;28;20454;-55
2023/12/24 00:14:41;;;;;;;3.50;2.50;;;8.60;99.90;;;8.75;63.70;94243.94;5078389;28;20463;-56
2023/12/24 00:17:08;;;;;;;3.73;2.10;;;8.70;99.90;;;8.87;63.93;94244.53;5078574;28;20450;-56
2023/12/24 00:19:35;;;;;;;5.50;2.60;;;8.80;99.90;;;8.96;63.56;94246.31;5082582;28;20471;-56
2023/12/24 00:22:05;;;;;;;3.33;1.97;;;9.00;99.90;;;9.07;63.21;94255.78;5078302;28;20835;-57
2023/12/24 00:24:32;;;;;;;3.40;2.30;;;9.10;99.90;;;9.16;63.04;94256.72;5078829;28;20497;-55
2023/12/24 00:26:59;;;;;;;3.23;2.20;;;9.10;99.90;;;9.23;63.00;94265.63;5078333;28;20511;-55
2023/12/24 00:29:28;;;;;;;2.37;2.17;;;9.20;99.90;;;9.28;62.59;94266.03;5075656;28;20497;-57
2023/12/24 00:31:55;;;;;;;4.50;2.30;;;9.30;99.90;;;9.35;62.69;94273.31;5079230;28;20459;-56
2023/12/24 00:34:23;;;;;;;11.03;2.87;;;9.40;99.90;;;9.41;62.30;94264.84;5078570;28;20501;-58
2023/12/24 00:36:50;;;;;;;6.57;2.53;;;9.40;99.90;;;9.47;62.08;94277.38;5078698;28;20515;-56
2023/12/24 00:39:17;;;;;;;4.60;2.73;;;9.50;99.90;;;9.53;61.83;94276.78;5078309;28;20461;-57
2023/12/24 00:41:45;;;;;;;7.00;2.87;;;9.50;99.90;;;9.59;61.60;94283.25;5079257;28;20482;-56
2023/12/24 00:44:12;;;;;;;4.10;2.13;;;9.60;99.90;;;9.65;61.48;94290.53;5081405;28;20469;-57
2023/12/24 00:46:41;;;;;;;8.90;2.17;;;9.60;99.90;;;9.71;61.75;94303.06;5082380;28;20521;-57
2023/12/24 00:49:08;;;;;;;6.10;2.73;;;9.70;99.90;;;9.74;61.60;94297.50;5082540;28;20445;-53
2023/12/24 00:51:35;;;;;;;3.80;2.30;;;9.70;99.90;;;9.76;61.44;94310.50;5081895;28;20463;-54
2023/12/24 00:54:03;;;;;;;6.27;2.37;;;9.70;99.90;;;9.76;61.58;94315.75;5081645;28;20449;-56
2023/12/24 00:56:30;;;;;;;2.57;2.07;;;9.80;99.90;;;9.79;61.41;94312.81;5081662;28;20840;-54
2023/12/24 00:58:58;;;;;;;7.03;2.50;;;9.80;99.90;;;9.81;61.32;94324.03;5081562;28;20457;-56
2023/12/24 01:01:25;;;;;;;8.30;3.07;;;9.80;99.90;;;9.83;61.26;94329.94;5081973;28;20889;-56
2023/12/24 01:03:53;;;;;;;7.63;1.97;;;9.80;99.70;;;9.85;61.38;94325.34;5082161;28;20872;-55
2023/12/24 01:06:21;;;;;;;17.93;3.03;;;9.80;99.80;;;9.87;61.39;94329.50;5083215;28;20850;-55
2023/12/24 01:08:48;;;;;;;2.53;1.40;;;9.90;99.70;;;9.90;60.91;94333.63;5083193;28;20610;-56
2023/12/24 01:11:15;;;;;;;4.60;1.63;;;9.90;99.30;;;9.91;59.94;94332.63;5079359;28;20471;-56
2023/12/24 01:13:42;;;;;;;5.07;1.80;;;9.90;98.70;;;9.92;59.72;94347.44;5082637;28;20557;-57
2023/12/24 01:16:10;;;;;;;3.63;1.40;;;9.90;98.40;;;9.94;59.48;94348.09;5081066;28;21010;-57
2023/12/24 01:18:37;;;;;;;1.67;1.57;;;9.90;98.20;;;9.95;59.23;94352.41;5081846;28;20483;-57
2023/12/24 01:21:06;;;;;;;6.00;1.80;;;9.90;97.60;;;9.95;58.80;94347.16;5080955;28;20611;-56
2023/12/24 01:23:33;;;;;;;3.50;1.80;;;10.00;97.00;;;9.96;58.71;94358.47;5081938;28;20450;-55
2023/12/24 01:26:01;;;;;;;5.97;1.90;;;9.90;97.50;;;9.95;58.48;94370.78;5080662;28;21002;-58
2023/12/24 01:28:28;;;;;;;4.27;1.97;;;9.90;97.10;;;9.93;58.35;94364.00;5082974;28;20450;-57
2023/12/24 01:30:56;;;;;;;1.70;1.60;;;9.90;97.00;;;9.92;57.98;94368.47;5081913;28;20474;-55
2023/12/24 01:33:23;;;;;;;4.80;1.23;;;10.00;96.30;;;9.90;58.14;94369.56;5080567;28;20540;-56
2023/12/24 01:35:50;;;;;;;3.30;1.70;;;9.90;96.60;;;9.88;57.99;94367.09;5081899;28;20821;-55
2023/12/24 01:38:19;;;;;;;4.50;2.00;;;9.90;96.60;;;9.85;57.75;94381.38;5081937;28;20511;-57
2023/12/24 01:40:47;;;;;;;2.17;1.70;;;9.90;96.30;;;9.81;57.84;94369.50;5081583;28;20993;-57
2023/12/24 01:43:14;;;;;;;1.87;1.43;;;9.80;96.30;;;9.78;57.71;94367.16;5080192;28;20454;-56
2023/12/24 01:45:41;;;;;;;4.40;1.70;;;9.80;96.20;;;9.76;57.70;94373.53;5081453;28;20958;-57
2023/12/24 01:48:08;;;;;;;1.50;1.23;;;9.80;96.20;;;9.74;57.68;94368.41;5080033;28;20452;-58
2023/12/24 01:50:36;;;;;;;1.87;1.77;;;9.70;96.10;;;9.72;57.44;94369.56;5082822;28;20489;-55
2023/12/24 01:53:04;;;;;;;3.50;1.23;;;9.70;95.80;;;9.67;57.51;94370.81;5081083;28;20793;-56
2023/12/24 01:55:33;;;;;;;2.03;1.37;;;9.70;95.90;;;9.65;57.23;94372.75;5079295;28;21009;-56
2023/12/24 01:58:00;;;;;;;3.00;1.33;;;9.70;95.70;;;9.62;57.07;94375.69;5081478;28;20450;-55
2023/12/24 02:00:28;;;;;;;1.60;1.10;;;9.60;95.50;;;9.60;57.07;94379.41;5079842;28;20947;-55
2023/12/24 02:02:55;;;;;;;1.40;1.00;;;9.60;95.30;;;9.59;56.94;94380.38;5081143;28;21045;-55
2023/12/24 02:05:22;;;;;;;1.57;0.90;;;9.60;95.10;;;9.57;56.78;94380.53;5079789;28;20459;-56
2023/12/24 02:07:49;;;;;;;1.50;1.30;;;9.60;95.00;;;9.54;56.98;94388.69;5081518;28;20454;-57
2023/12/24 02:10:17;;;;;;;2.40;1.50;;;9.60;95.10;;;9.51;56.17;94396.84;5075104;28;20470;-56
2023/12/24 02:12:46;;;;;;;1.67;1.57;;;9.50;94.70;;;9.48;56.25;94400.63;5081430;28;20458;-56
2023/12/24 02:15:13;;;;;;;2.90;1.00;;;9.50;94.40;;;9.45;56.47;94393.03;5079006;28;20548;-56
2023/12/24 02:17:40;;;;;;;2.47;1.40;;;9.50;94.50;;;9.44;56.28;94401.88;5080839;28;20454;-57
2023/12/24 02:20:09;;;;;;;1.27;1.17;;;9.50;94.80;;;9.43;56.05;94400.22;5079138;28;20533;-58
2023/12/24 02:22:37;;;;;;;3.77;1.10;;;9.50;94.10;;;9.40;56.31;94399.69;5081207;28;20542;-58
2023/12/24 02:25:06;;;;;;;2.40;1.17;;;9.40;94.20;;;9.41;56.22;94401.34;5079502;28;20463;-57
2023/12/24 02:27:37;;;;;;;1.40;1.30;;;9.40;94.40;;;9.40;56.06;94408.38;5080940;28;20450;-56
2023/12/24 02:30:10;;;;;;;1.30;1.20;;;9.40;94.30;;;9.40;56.45;94407.56;5079673;28;20475;-56
2023/12/24 02:32:37;;;;;;;1.43;1.33;;;9.40;94.40;;;9.38;55.96;94402.44;5079442;28;20464;-55
2023/12/24 02:35:06;;;;;;;1.30;1.07;;;9.40;94.30;;;9.37;56.16;94402.59;5080241;28;20578;-56
2023/12/24 02:37:33;;;;;;;1.50;1.20;;;9.40;94.50;;;9.36;55.99;94399.16;5079803;28;20490;-56
2023/12/24 02:40:03;;;;;;;1.60;1.30;;;9.40;94.10;;;9.32;56.08;94410.91;5078096;28;20481;-56
2023/12/24 02:42:30;;;;;;;1.83;1.30;;;9.40;94.20;;;9.30;55.93;94410.22;5080086;28;21022;-56
2023/12/24 02:44:57;;;;;;;1.30;1.20;;;9.30;94.20;;;9.28;56.30;94428.72;5078761;28;20503;-58
2023/12/24 02:47:25;;;;;;;2.23;1.10;;;9.30;94.30;;;9.28;56.31;94425.25;5080049;28;20454;-57
2023/12/24 02:49:52;;;;;;;1.93;1.57;;;9.30;94.20;;;9.27;55.97;94424.44;5081334;28;20483;-60
2023/12/24 02:52:19;;;;;;;1.33;1.23;;;9.30;94.00;;;9.27;55.49;94413.13;5078992;28;20453;-55
2023/12/24 02:54:46;;;;;;;1.33;0.90;;;9.30;93.80;;;9.26;55.96;94437.72;5079865;28;20496;-58
2023/12/24 02:57:15;;;;;;;1.23;1.13;;;9.30;93.90;;;9.25;55.80;94429.00;5079391;28;20458;-56
2023/12/24 02:59:42;;;;;;;1.40;1.30;;;9.30;93.90;;;9.25;55.57;94433.41;5079871;28;20622;-56
2023/12/24 03:02:10;;;;;;;1.70;1.20;;;9.30;93.50;;;9.25;55.62;94434.25;5078958;28;20489;-56
2023/12/24 03:04:37;;;;;;;1.60;1.00;;;9.30;93.70;;;9.26;55.61;94433.28;5079439;28;20600;-56
2023/12/24 03:07:05;;;;;;;1.33;1.23;;;9.30;93.70;;;9.27;55.73;94434.13;5084631;28;20829;-57
2023/12/24 03:09:32;;;;;;;1.30;1.20;;;9.30;93.70;;;9.26;55.73;94435.09;5079682;28;20483;-55
2023/12/24 03:11:59;;;;;;;1.47;1.33;;;9.30;93.50;;;9.25;55.73;94442.13;5079914;28;20530;-57
2023/12/24 03:14:28;;;;;;;1.37;1.17;;;9.30;93.60;;;9.25;55.56;94443.91;5079299;28;20591;-57
2023/12/24 03:16:56;;;;;;;3.83;1.20;;;9.20;93.20;;;9.25;55.46;94449.16;5079535;28;20949;-57
2023/12/24 03:19:23;;;;;;;1.30;1.20;;;9.20;93.60;;;9.24;55.60;94448.34;5078900;28;20557;-57
2023/12/24 03:21:50;;;;;;;1.87;1.20;;;9.20;93.40;;;9.26;55.29;94449.03;5078880;28;20497;-56
2023/12/24 03:24:17;;;;;;;1.97;1.07;;;9.30;93.30;;;9.27;55.44;94450.69;5079255;28;20470;-57
2023/12/24 03:26:45;;;;;;;1.37;1.20;;;9.30;93.40;;;9.29;55.56;94464.47;5079097;28;20872;-56
2023/12/24 03:29:13;;;;;;;1.23;1.13;;;9.30;93.40;;;9.30;55.28;94471.41;5081933;28;20459;-57
2023/12/24 03:31:41;;;;;;;1.70;1.60;;;9.30;93.30;;;9.34;55.22;94471.94;5079602;28;20464;-57
2023/12/24 03:34:09;;;;;;;1.40;1.20;;;9.30;93.30;;;9.36;55.29;94484.91;5078866;28;20447;-56
2023/12/24 03:36:36;;;;;;;0.97;0.87;;;9.40;93.20;;;9.38;55.00;94486.44;5079237;28;20446;-57
2023/12/24 03:39:03;;;;;;;2.70;1.07;;;9.40;93.20;;;9.40;55.31;94489.72;5082319;28;20521;-57
2023/12/24 03:41:31;;;;;;;1.37;1.20;;;9.40;93.10;;;9.43;55.52;94493.88;5082463;28;20524;-56
2023/12/24 03:43:58;;;;;;;1.47;1.30;;;9.40;93.30;;;9.44;55.28;94500.81;5076816;28;20453;-59
2023/12/24 03:46:25;;;;;;;2.80;1.20;;;9.40;93.30;;;9.44;55.39;94506.06;5078239;28;20539;-56
2023/12/24 03:48:54;;;;;;;1.37;1.27;;;9.40;93.30;;;9.45;54.92;94515.56;5075297;28;20453;-55
2023/12/24 03:51:23;;;;;;;1.10;1.00;;;9.40;92.90;;;9.45;55.21;94498.03;5078842;28;20482;-57
2023/12/24 03:53:51;;;;;;;1.30;1.20;;;9.40;93.10;;;9.43;54.28;94513.06;5078855;28;20435;-55
2023/12/24 03:56:19;;;;;;;1.70;1.30;;;9.40;92.30;;;9.43;55.12;94522.75;5083154;28;20458;-56
2023/12/24 03:58:47;;;;;;;1.20;1.00;;;9.40;92.70;;;9.43;54.80;94520.13;5078568;28;20981;-56
2023/12/24 04:01:14;;;;;;;7.83;5.10;;;9.50;92.70;;;9.44;55.22;94535.75;5078874;28;21079;-57
2023/12/24 04:03:42;;;;;;;2.50;2.30;;;9.40;92.90;;;9.46;54.99;94538.22;5079596;28;20540;-57
2023/12/24 04:06:16;;;;;;;2.17;1.50;;;9.40;92.90;;;9.48;55.16;94544.16;5078014;28;20846;-57
2023/12/24 04:08:43;;;;;;;1.50;1.20;;;9.50;93.00;;;9.48;54.97;94552.03;5078205;28;20481;-56
2023/12/24 04:11:13;;;;;;;2.13;1.53;;;9.50;92.80;;;9.48;55.16;94541.53;5078042;28;20523;-54
2023/12/24 04:13:41;;;;;;;1.80;1.70;;;9.50;93.00;;;9.49;54.89;94556.31;5079458;28;20494;-56
2023/12/24 04:16:08;;;;;;;2.03;1.70;;;9.50;92.90;;;9.50;55.06;94566.69;5077061;28;20466;-56
2023/12/24 04:18:35;;;;;;;3.40;2.17;;;9.50;93.00;;;9.51;55.41;94559.63;5082368;28;20928;-57
2023/12/24 04:21:03;;;;;;;3.60;3.30;;;9.50;93.10;;;9.53;55.16;94568.22;5081631;28;20531;-57
2023/12/24 04:23:31;;;;;;;2.13;1.60;;;9.50;93.00;;;9.52;55.39;94562.09;5082789;28;20498;-61
2023/12/24 04:25:59;;;;;;;3.23;1.60;;;9.50;93.20;;;9.53;55.58;94568.22;5080148;28;20473;-56
2023/12/24 04:28:26;;;;;;;2.17;1.63;;;9.50;93.30;;;9.54;55.69;94566.41;5083133;28;20470;-56
2023/12/24 04:30:53;;;;;;;2.10;2.00;;;9.60;93.50;;;9.54;55.60;94569.84;5081338;28;21350;-56
2023/12/24 04:33:21;;;;;;;1.70;1.60;;;9.60;93.50;;;9.54;55.76;94582.97;5083020;28;20451;-57
2023/12/24 04:35:48;;;;;;;2.00;1.80;;;9.60;93.40;;;9.56;55.81;94578.44;5081624;28;20553;-57
2023/12/24 04:38:15;;;;;;;1.50;1.40;;;9.60;93.50;;;9.56;55.69;94578.44;5082219;28;20451;-56
2023/12/24 04:40:44;;;;;;;1.97;1.40;;;9.60;93.40;;;9.57;55.67;94581.88;5081448;28;20469;-56
2023/12/24 04:43:11;;;;;;;4.13;1.70;;;9.60;93.50;;;9.57;55.80;94576.63;5082452;28;20494;-57
2023/12/24 04:45:39;;;;;;;1.53;1.43;;;9.60;93.50;;;9.58;55.67;94580.91;5080871;28;20457;-55
2023/12/24 04:48:06;;;;;;;1.60;1.50;;;9.60;93.40;;;9.58;56.08;94589.59;5082584;28;20512;-55
2023/12/24 04:50:33;;;;;;;1.30;1.20;;;9.60;93.80;;;9.60;55.45;94582.41;5079770;28;20474;-57
2023/12/24 04:53:01;;;;;;;3.67;1.50;;;9.60;93.30;;;9.62;55.63;94593.63;5081715;28;20801;-57
2023/12/24 04:55:28;;;;;;;1.17;1.07;;;9.60;93.30;;;9.64;55.49;94599.53;5081900;28;20479;-57
2023/12/24 04:57:57;;;;;;;1.77;1.57;;;9.60;93.40;;;9.65;55.16;94601.22;5081823;28;20574;-55
2023/12/24 05:00:24;;;;;;;3.47;1.33;;;9.70;93.20;;;9.65;55.50;94593.34;5081547;28;20528;-56
2023/12/24 05:02:52;;;;;;;1.90;1.80;;;9.60;93.20;;;9.67;55.46;94606.31;5080875;28;20488;-55
2023/12/24 05:05:19;;;;;;;1.30;0.97;;;9.70;93.20;;;9.67;55.66;94612.41;5081963;28;20883;-56
2023/12/24 05:07:46;;;;;;;1.37;1.27;;;9.70;93.30;;;9.69;55.46;94631.47;5081263;28;20446;-56
2023/12/24 05:10:14;;;;;;;1.40;1.17;;;9.70;93.20;;;9.69;55.42;94626.19;5081425;28;20470;-57
2023/12/24 05:12:41;;;;;;;1.10;1.00;;;9.70;93.30;;;9.71;55.77;94614.75;5081614;28;20457;-56
2023/12/24 05:15:11;;;;;;;1.23;1.13;;;9.70;93.50;;;9.71;55.36;94633.13;5081060;28;20910;-56
2023/12/24 05:17:38;;;;;;;11.23;1.63;;;9.70;93.30;;;9.71;55.61;94638.38;5081107;28;20450;-56
2023/12/24 05:20:09;;;;;;;1.30;1.20;;;9.70;93.30;;;9.72;56.04;94645.28;5082096;28;20535;-58
2023/12/24 05:22:36;;;;;;;1.07;0.97;;;9.70;93.80;;;9.72;56.22;94642.66;5080475;28;21017;-57
2023/12/24 05:25:04;;;;;;;1.90;1.23;;;9.70;93.80;;;9.72;55.96;94645.28;5081329;28;20856;-57
2023/12/24 05:27:31;;;;;;;1.63;1.53;;;9.70;93.70;;;9.73;55.95;94647.78;5080591;28;21132;-58
2023/12/24 05:29:58;;;;;;;1.67;1.57;;;9.70;93.60;;;9.72;55.77;94645.28;5081288;28;20478;-57
2023/12/24 05:32:27;;;;;;;3.00;1.50;;;9.70;93.50;;;9.73;55.71;94625.91;5078140;28;20451;-56
2023/12/24 05:34:54;;;;;;;2.10;1.50;;;9.70;93.50;;;9.72;55.74;94625.09;5080678;28;20854;-58
2023/12/24 05:37:22;;;;;;;4.83;1.97;;;9.70;93.50;;;9.73;55.73;94624.16;5081386;28;20532;-57
2023/12/24 05:39:49;;;;;;;1.77;1.30;;;9.70;93.50;;;9.73;55.61;94631.19;5080857;28;20538;-55
2023/12/24 05:42:16;;;;;;;1.70;1.60;;;9.70;93.50;;;9.75;55.78;94645.84;5081543;28;20461;-54
2023/12/24 05:44:44;;;;;;;6.13;1.80;;;9.70;93.30;;;9.77;55.71;94640.44;5081276;28;20519;-57
2023/12/24 05:47:11;;;;;;;2.07;1.87;;;9.70;93.40;;;9.79;55.50;94643.75;5081156;28;20451;-55
2023/12/24 05:49:40;;;;;;;1.63;1.53;;;9.80;93.40;;;9.79;55.40;94636.72;5080853;28;20538;-56
2023/12/24 05:52:07;;;;;;;1.80;1.70;;;9.80;93.30;;;9.82;55.59;94640.84;5081063;28;20443;-58
2023/12/24 05:54:35;;;;;;;1.43;1.33;;;9.80;93.20;;;9.84;55.62;94631.03;5080589;28;20478;-59
2023/12/24 05:57:02;;;;;;;4.00;3.10;;;9.80;93.40;;;9.83;55.59;94627.56;5081086;28;20454;-57
2023/12/24 05:59:29;;;;;;;2.20;2.10;;;9.80;93.30;;;9.84;55.55;94628.41;5080601;28;20538;-57
2023/12/24 06:01:56;;;;;;;2.80;1.43;;;9.80;93.20;;;9.84;55.26;94623.97;5080345;28;20454;-57
2023/12/24 06:04:23;;;;;;;2.60;2.10;;;9.80;93.10;;;9.84;55.45;94626.59;5080905;28;20485;-56
2023/12/24 06:06:52;;;;;;;2.50;1.70;;;9.80;93.10;;;9.85;55.24;94645.81;5080499;28;20944;-58
2023/12/24 06:09:19;;;;;;;1.87;1.50;;;9.80;93.10;;;9.86;55.25;94650.09;5082416;28;20454;-56
2023/12/24 06:11:47;;;;;;;2.77;2.10;;;9.90;93.20;;;9.88;55.38;94645.53;5080453;28;20454;-58
2023/12/24 06:14:14;;;;;;;4.67;2.10;;;9.90;93.20;;;9.88;55.21;94642.91;5080006;28;20450;-57
2023/12/24 06:16:41;;;;;;;2.60;2.40;;;9.90;93.10;;;9.92;55.61;94649.53;5080875;28;20450;-57
2023/12/24 06:19:08;;;;;;;3.13;2.00;;;9.90;93.20;;;10.00;55.27;94651.47;5079708;28;20450;-56
2023/12/24 06:21:36;;;;;;;2.60;2.00;;;10.00;92.70;;;10.07;55.24;94649.09;5080497;28;20450;-57
2023/12/24 06:24:05;;;;;;;1.97;1.83;;;10.10;92.70;;;10.14;55.28;94650.19;5079175;28;20494;-56
2023/12/24 06:26:33;;;;;;;4.07;2.60;;;10.20;92.60;;;10.26;55.20;94659.56;5080579;28;20465;-57
2023/12/24 06:29:01;;;;;;;4.30;2.80;;;10.20;92.50;;;10.41;54.91;94662.59;5079783;28;20451;-55
2023/12/24 06:31:28;;;;;;;4.67;3.60;;;10.40;92.50;;;10.52;54.00;94657.16;5080208;28;20450;-58
2023/12/24 06:33:55;;;;;;;4.50;3.80;;;10.50;91.80;;;10.58;54.27;94655.72;5077961;28;20458;-56
2023/12/24 06:36:22;;;;;;;8.53;3.77;;;10.60;91.80;;;10.61;54.09;94657.25;5080717;28;20466;-58
2023/12/24 06:38:50;;;;;;;6.77;3.30;;;10.60;91.70;;;10.58;54.23;94658.34;5079746;28;20832;-58
2023/12/24 06:41:18;;;;;;;4.17;2.70;;;10.60;91.70;;;10.56;54.14;94658.50;5080598;28;20477;-56
2023/12/24 06:43:46;;;;;;;3.20;2.60;;;10.60;91.70;;;10.53;54.05;94655.34;5079488;28;20494;-56
2023/12/24 06:46:13;;;;;;;4.10;2.27;;;10.60;91.60;;;10.50;53.92;94669.63;5080486;28;20474;-57
2023/12/24 06:48:40;;;;;;;9.07;2.10;;;10.50;91.40;;;10.48;54.17;94682.06;5078986;28;20454;-57
2023/12/24 06:51:07;;;;;;;2.10;1.90;;;10.50;91.50;;;10.48;53.83;94694.38;5080559;28;20485;-58
2023/12/24 06:53:35;;;;;;;2.57;2.37;;;10.50;91.30;;;10.48;53.93;94699.66;5079191;28;20474;-56
2023/12/24 06:56:02;;;;;;;4.63;2.40;;;10.40;91.30;;;10.45;53.99;94698.13;5080796;28;20897;-57
2023/12/24 06:58:31;;;;;;;3.10;1.93;;;10.40;91.30;;;10.46;53.93;94704.22;5079054;28;20462;-59
2023/12/24 07:00:58;;;;;;;4.07;2.70;;;10.50;91.20;;;10.45;53.94;94705.19;5080030;28;20465;-57
2023/12/24 07:03:26;;;;;;;2.10;2.00;;;10.40;91.30;;;10.48;53.96;94712.78;5078368;28;20571;-58
2023/12/24 07:05:54;;;;;;;4.70;2.50;;;10.40;91.30;;;10.48;53.97;94715.44;5080135;28;20481;-57
2023/12/24 07:08:22;;;;;;;3.93;2.90;;;10.40;91.10;;;10.47;53.86;94713.75;5078314;28;20822;-59
2023/12/24 07:10:49;;;;;;;4.27;2.73;;;10.50;91.10;;;10.49;53.82;94709.22;5080595;28;20556;-56
2023/12/24 07:13:16;;;;;;;3.40;2.23;;;10.50;91.20;;;10.52;53.78;94722.06;5078529;28;20798;-56
2023/12/24 07:15:45;;;;;;;2.63;2.07;;;10.50;91.10;;;10.55;53.75;94719.13;5079945;28;20462;-56
2023/12/24 07:18:13;;;;;;;4.13;3.03;;;10.50;91.00;;;10.57;53.77;94725.91;5078644;28;20841;-57
2023/12/24 07:20:40;;;;;;;6.07;3.30;;;10.50;91.00;;;10.60;53.45;94719.53;5080292;28;20497;-57
2023/12/24 07:23:07;;;;;;;4.10;3.00;;;10.60;91.00;;;10.64;53.40;94723.53;5078162;28;20495;-55
2023/12/24 07:25:35;;;;;;;2.77;2.53;;;10.60;90.90;;;10.68;53.41;94732.78;5079952;28;20470;-57
2023/12/24 07:28:02;;;;;;;3.93;2.70;;;10.60;90.80;;;10.73;53.54;94725.28;5078197;28;20447;-56
2023/12/24 07:30:30;;;;;;;4.80;3.43;;;10.70;90.80;;;10.77;52.67;94729.31;5080100;28;20565;-58
2023/12/24 07:32:58;;;;;;;5.97;3.00;;;10.70;90.10;;;10.82;52.85;94728.06;5076907;28;20832;-56
2023/12/24 07:35:26;;;;;;;6.20;2.90;;;10.80;90.50;;;10.87;53.10;94731.06;5080098;28;21002;-62
2023/12/24 07:37:53;;;;;;;4.47;4.03;;;10.80;90.60;;;10.90;53.46;94733.41;5078074;28;20442;-57
2023/12/24 07:40:20;;;;;;;8.60;2.97;;;10.90;90.80;;;10.93;53.42;94735.75;5080033;28;20469;-55
2023/12/24 07:42:47;;;;;;;5.43;3.00;;;10.90;91.00;;;10.94;53.85;94732.97;5077552;28;20952;-57
2023/12/24 07:45:15;;;;;;;4.13;2.90;;;10.90;91.10;;;10.97;53.70;94729.22;5080411;28;20484;-57
2023/12/24 07:47:42;;;;;;;3.87;3.23;;;10.90;91.30;;;11.01;54.02;94730.56;5077497;28;20451;-56
2023/12/24 07:50:11;;;;;;;3.10;2.23;;;11.00;91.40;;;11.06;53.86;94715.19;5080234;28;20547;-57
2023/12/24 07:52:38;;;;;;;5.10;2.20;;;11.00;91.40;;;11.11;53.67;94714.75;5079816;28;20447;-56
2023/12/24 07:55:06;;;;;;;5.50;2.20;;;11.00;91.10;;;11.17;53.63;94710.69;5083128;28;20473;-57
2023/12/24 07:57:34;;;;;;;8.47;5.10;;;11.10;91.00;;;11.25;53.69;94724.78;5081548;28;20450;-56
2023/12/24 08:00:01;;;;;;;4.80;3.97;;;11.20;91.30;;;11.35;54.06;94734.44;5084126;28;20478;-56
2023/12/24 08:02:28;;;;;;;3.80;3.50;;;11.30;91.80;;;11.46;53.33;94732.41;5080395;28;20462;-58
2023/12/24 08:04:56;;;;;;;4.87;2.70;;;11.40;91.10;;;11.56;52.69;94728.91;5084166;28;20911;-56
2023/12/24 08:07:24;;;;;;;3.03;2.40;;;11.50;90.70;;;11.66;53.06;94733.13;5079229;28;20455;-56
2023/12/24 08:09:52;;;;;;;6.37;2.20;;;11.60;90.70;;;11.77;52.67;94734.72;5084117;28;20846;-56
2023/12/24 08:12:19;;;;;;;2.90;2.07;;;11.70;90.50;;;11.88;52.09;94728.34;5080499;28;20458;-56
2023/12/24 08:14:46;;;;;;;3.53;2.87;;;11.80;89.90;;;12.02;51.75;94724.38;5081162;28;20474;-57
2023/12/24 08:17:14;;;;;;;13.10;2.33;;;11.90;89.20;;;12.13;51.52;94713.63;5084231;28;20880;-59
2023/12/24 08:19:41;;;;;;;2.80;2.00;;;12.00;88.70;;;12.26;50.99;94715.03;5082128;28;20576;-57
2023/12/24 08:22:09;;;;;;;1.50;1.23;;;12.20;87.90;;;12.38;50.91;94730.44;5085374;28;20488;-59
2023/12/24 08:24:37;;;;;;;8.50;1.03;;;12.30;87.60;;;12.49;50.72;94724.06;5081526;28;21072;-59
2023/12/24 08:27:06;;;;;;;11.07;1.50;;;12.40;86.90;;;12.63;50.42;94714.75;5085464;28;20541;-57
2023/12/24 08:29:34;;;;;;;1.87;1.40;;;12.50;86.50;;;12.77;50.16;94712.53;5081787;28;21022;-59
2023/12/24 08:32:01;;;;;;;0.90;0.80;;;12.60;85.70;;;12.88;49.20;94705.16;5084038;28;20874;-57
2023/12/24 08:34:28;;;;;;;1.40;1.30;;;12.80;83.80;;;13.03;48.78;94712.50;5080739;28;20979;-59
2023/12/24 08:36:56;;;;;;;2.83;2.33;;;12.90;83.40;;;13.17;48.85;94705.78;5084463;28;20454;-55
2023/12/24 08:39:23;;;;;;;5.33;2.60;;;13.00;83.10;;;13.36;48.57;94720.56;5084329;28;20489;-58
2023/12/24 08:41:52;;;;;;;2.87;1.80;;;13.20;82.70;;;13.64;48.15;94734.34;5080612;28;20534;-58
2023/12/24 08:44:19;;;;;;;2.20;1.90;;;13.40;81.60;;;14.04;48.02;94734.56;5084252;28;20901;-58
2023/12/24 08:46:48;;;;;;;2.23;2.00;;;13.70;82.00;;;14.46;47.09;94734.38;5080526;28;20458;-56
2023/12/24 08:49:16;;;;;;;5.93;3.90;;;14.10;79.90;;;14.85;46.71;94732.84;5083845;28;20965;-58
2023/12/24 08:51:43;;;;;;;5.93;3.37;;;14.50;80.10;;;15.19;46.14;94742.34;5080789;28;20466;-58
2023/12/24 08:54:10;;;;;;;9.00;4.57;;;14.80;79.40;;;15.55;45.92;94736.53;5083564;28;20495;-57
2023/12/24 08:56:38;;;;;;;8.37;4.60;;;15.20;78.60;;;16.01;46.77;94733.16;5080407;28;20447;-58
2023/12/24 08:59:08;;;;;;;8.17;4.27;;;15.60;80.20;;;16.56;46.23;94717.94;5083902;28;20934;-56
2023/12/24 09:01:40;;;;;;;9.13;3.80;;;16.10;79.70;;;17.03;43.54;94725.63;5080410;28;20619;-56
2023/12/24 09:04:07;;;;;;;4.77;3.60;;;16.50;75.20;;;17.42;42.92;94726.31;5080945;28;20485;-55
2023/12/24 09:06:34;;;;;;;10.33;3.50;;;17.00;72.80;;;17.77;41.54;94717.72;5081077;28;20450;-58
2023/12/24 09:09:02;;;;;;;5.60;2.50;;;17.30;68.80;;;18.12;38.71;94707.25;5083100;28;20473;-58
2023/12/24 09:11:29;;;;;;;2.30;2.00;;;17.70;64.40;;;18.44;38.85;94703.25;5080678;28;20473;-55
2023/12/24 09:13:56;;;;;;;2.40;2.20;;;18.00;62.70;;;18.76;41.13;94706.34;5082795;28;20558;-58
2023/12/24 09:16:25;;;;;;;2.10;1.43;;;18.20;68.60;;;19.13;40.50;94709.66;5080119;28;20478;-56
2023/12/24 09:18:52;;;;;;;1.40;1.30;;;18.60;65.80;;;19.48;40.40;94710.47;5082649;28;20862;-55
2023/12/24 09:21:19;;;;;;;2.03;1.80;;;18.90;66.60;;;19.90;36.09;94706.94;5080180;28;20474;-56
2023/12/24 09:23:46;;;;;;;9.03;1.50;;;19.40;58.60;;;20.22;39.18;94710.69;5082803;28;20618;-59
2023/12/24 09:26:14;;;;;;;5.43;3.37;;;19.70;63.50;;;20.59;38.41;94709.28;5080210;28;20512;-59
2023/12/24 09:28:41;;;;;;;7.93;2.20;;;20.00;62.70;;;21.03;38.33;94704.31;5082854;28;20457;-57
2023/12/24 09:31:08;;;;;;;4.93;1.67;;;20.40;62.30;;;21.47;35.59;94697.41;5079527;28;20524;-59
2023/12/24 09:33:37;;;;;;;2.83;2.07;;;20.80;57.00;;;21.85;36.19;94698.50;5082196;28;20439;-57
2023/12/24 09:36:07;;;;;;;8.70;2.00;;;21.20;58.50;;;22.20;35.33;94706.13;5079780;28;20990;-58
2023/12/24 09:38:34;;;;;;;10.00;2.30;;;21.50;57.60;;;22.58;35.81;94704.44;5080226;28;20459;-56
2023/12/24 09:41:01;;;;;;;2.93;2.40;;;21.90;57.60;;;22.84;35.58;94693.47;5082405;28;20477;-58
2023/12/24 09:43:30;;;;;;;6.23;2.33;;;22.10;56.80;;;23.04;33.74;94698.66;5079875;28;20454;-57
2023/12/24 09:45:58;;;;;;;1.80;1.70;;;22.30;54.20;;;23.07;33.57;94705.44;5082602;28;20462;-58
2023/12/24 09:48:25;;;;;;;1.83;1.43;;;22.40;53.80;;;23.02;33.62;94705.28;5079897;28;20447;-59
2023/12/24 09:50:54;;;;;;;3.30;1.60;;;22.40;52.60;;;22.86;32.44;94696.75;5082496;28;20485;-58
2023/12/24 09:53:21;;;;;;;5.30;1.63;;;22.30;51.00;;;22.61;32.54;94685.25;5079058;28;20451;-59
2023/12/24 09:55:48;;;;;;;4.40;1.57;;;22.10;51.50;;;22.48;33.94;94672.75;5082237;28;20466;-60
2023/12/24 09:58:17;;;;;;;1.90;1.60;;;22.10;52.60;;;22.65;32.90;94670.34;5079573;28;20558;-59
2023/12/24 10:00:44;;;;;;;7.83;2.10;;;22.10;51.60;;;23.00;31.93;94659.09;5081520;28;20547;-59
2023/12/24 10:03:11;;;;;;;3.50;1.20;;;22.30;51.00;;;23.14;31.89;94647.19;5077677;28;20478;-57
2023/12/24 10:06:03;;;;;;;1.60;1.50;;;22.50;51.20;;;23.37;30.39;94637.66;5081578;28;20554;-57
2023/12/24 10:08:31;;;;;;;1.83;1.50;;;22.70;50.30;;;23.65;32.27;94631.69;5078290;28;20466;-56
2023/12/24 10:10:58;;;;;;;2.60;1.50;;;22.90;51.50;;;23.95;30.89;94628.22;5080881;28;20910;-59
2023/12/24 10:13:25;;;;;;;7.13;2.40;;;23.10;49.60;;;24.32;30.78;94634.28;5082162;28;20958;-59
2023/12/24 10:16:06;;;;;;;1.90;1.70;;;23.60;49.20;;;24.93;29.99;94628.72;5086313;28;20594;-59
2023/12/24 10:18:33;;;;;;;5.67;2.40;;;24.00;48.70;;;25.55;30.39;94628.13;5089134;28;20473;-61
2023/12/24 10:21:06;;;;;;;2.80;1.50;;;24.60;49.40;;;26.18;29.00;94609.38;5087703;28;20454;-59
2023/12/24 10:23:32;;;;;;;3.13;1.60;;;25.20;47.80;;;26.73;28.31;94602.41;5090000;28;20434;-59
2023/12/24 10:26:03;;;;;;;4.00;1.70;;;25.70;46.60;;;27.26;27.30;94596.66;5089907;28;20465;-58
2023/12/24 10:28:30;;;;;;;5.70;1.87;;;26.10;45.20;;;27.70;27.72;94585.81;5089636;28;20444;-57
2023/12/24 10:31:08;;;;;;;4.40;2.47;;;26.60;45.50;;;28.04;26.77;94575.66;5089733;28;20466;-59